カンクン の空港の天気 - METARとTAF

カンクン国際空港 ( MMUN / CUN ) - メキシコ キンタナ・ロー州カンクン
飛行場実況気象(Metar)
観測時間06/19 17:46 CDT (06/19 22:46 UTC)
風向・風速東南東 7m/s
視程10km以上
天気現象
全天の4割程度の雲 雲底高度 460m
全天の8割程度の雲 雲底高度 2440m
全天の8割程度の雲 雲底高度 6100m
気温28℃
湿度79%
気圧1015hPa
METARMMUN 192246Z 12013KT 7SM SCT015 BKN080 BKN200 28/24 A2996 RMK 8/138
過去の天気等 Google飛行場航空写真 Wunderground天気予報

過去48時間のMETAR

飛行場予報(TAF)
発表時間: 6/19 12:27 CDT (6/19 17:27 UTC)
予報対象時間: 19日13時 CDT ~ 20日19時 CDT
風向・風速東南東 5m/s
視程10km以上
全天の8割程度の雲 雲底高度 460m
19日15時 CDT ~ 19日16時 CDT に徐々に
風向・風速東南東 8m/s
19日21時 CDT から
風向・風速東南東 3m/s
視程10km以上
全天の4割程度の雲 雲底高度 610m
全天の8割程度の雲 雲底高度 7620m
20日5時 CDT から
風向・風速東南東 4m/s
視程10km以上
天気現象煙霧
全天の8割程度の雲 雲底高度 460m
全天の8割程度の雲 雲底高度 7620m
20日13時 CDT から
風向・風速東南東 6m/s
視程10km以上
全天の4割程度の雲 雲底高度 610m
全天の8割程度の雲 雲底高度 7620m
20日15時 CDT ~ 20日16時 CDT に徐々に
風向・風速東南東 8m/s
TAF MMUN 191727Z 1918/2024 12010KT P6SM BKN015 TX30/1921Z TN26/2012Z
BECMG 1920/1921 12015KT
FM200200 12006KT P6SM SCT020 BKN250
FM201000 12008KT 6SM HZ BKN015 BKN250
FM201800 12012KT P6SM SCT020 BKN250
BECMG 2020/2021 12015KT